createdAt,value
2017-09-15T00:02:15.547Z,99706.84
2017-09-15T00:05:16.811Z,99712.16
2017-09-15T00:08:18.798Z,99710.36
2017-09-15T00:11:20.091Z,99713.11
2017-09-15T00:14:21.316Z,99714.30
2017-09-15T00:17:22.629Z,99713.10
2017-09-15T00:20:24.656Z,99704.13
2017-09-15T00:23:25.976Z,99707.28
2017-09-15T00:26:27.246Z,99718.27
2017-09-15T00:29:28.507Z,99713.75
2017-09-15T00:32:29.910Z,99726.52
2017-09-15T00:35:31.186Z,99716.91
2017-09-15T00:38:32.471Z,99714.79
2017-09-15T00:41:34.482Z,99718.42
2017-09-15T00:44:36.034Z,99708.98
2017-09-15T00:47:37.274Z,99721.70
2017-09-15T00:50:38.587Z,99721.63
2017-09-15T00:53:40.622Z,99717.95
2017-09-15T00:56:41.946Z,99714.88
2017-09-15T00:59:43.270Z,99724.17
2017-09-15T01:02:45.299Z,99734.23
2017-09-15T01:05:47.017Z,99730.20
2017-09-15T01:08:48.328Z,99734.01
2017-09-15T01:11:50.471Z,99725.40
2017-09-15T01:14:51.742Z,99734.52
2017-09-15T01:17:53.051Z,99737.48
2017-09-15T01:20:54.286Z,99734.95
2017-09-15T01:23:55.593Z,99732.08
2017-09-15T01:26:57.570Z,99729.20
2017-09-15T01:29:58.854Z,99742.02
2017-09-15T01:33:00.257Z,99739.37
2017-09-15T01:36:02.258Z,99739.44
2017-09-15T01:39:03.723Z,99738.67
2017-09-15T01:42:04.987Z,99750.00
2017-09-15T01:45:06.278Z,99738.14
2017-09-15T01:48:08.300Z,99741.02
2017-09-15T01:51:09.661Z,99741.52
2017-09-15T01:54:10.922Z,99739.60
2017-09-15T01:57:12.214Z,99744.32
2017-09-15T02:00:13.491Z,99749.94
2017-09-15T02:03:14.771Z,99735.39
2017-09-15T02:06:16.019Z,99749.33
2017-09-15T02:09:17.321Z,99752.30
2017-09-15T02:12:18.570Z,99748.74
2017-09-15T02:15:19.851Z,99746.82
2017-09-15T02:18:21.125Z,99748.80
2017-09-15T02:21:23.146Z,99744.30
2017-09-15T02:24:24.446Z,99741.37
2017-09-15T02:27:26.475Z,99744.70
2017-09-15T02:30:27.746Z,99741.17
2017-09-15T02:33:29.046Z,99738.04
2017-09-15T02:36:30.291Z,99741.16
2017-09-15T02:39:31.578Z,99735.38
2017-09-15T02:42:33.105Z,99741.89
2017-09-15T02:45:35.102Z,99728.30
2017-09-15T02:48:36.588Z,99731.64
2017-09-15T02:51:37.865Z,99728.89
2017-09-15T02:54:39.162Z,99733.54
2017-09-15T02:57:41.161Z,99727.47
2017-09-15T03:00:42.455Z,99730.69
2017-09-15T03:03:43.733Z,99726.61
2017-09-15T03:06:45.798Z,99730.33
2017-09-15T03:09:47.966Z,99722.23
2017-09-15T03:12:49.982Z,99722.58
2017-09-15T03:15:51.390Z,99715.01
2017-09-15T03:18:53.406Z,99710.23
2017-09-15T03:21:55.459Z,99710.48
2017-09-15T03:24:56.786Z,99707.86
2017-09-15T03:27:58.101Z,99705.94
2017-09-15T03:30:59.375Z,99715.02
2017-09-15T03:34:01.410Z,99721.27
2017-09-15T03:37:02.651Z,99724.07
2017-09-15T03:40:03.947Z,99728.34
2017-09-15T03:43:05.214Z,99725.38
2017-09-15T03:46:06.505Z,99719.14
2017-09-15T03:49:07.833Z,99722.38
2017-09-15T03:52:09.103Z,99729.44
2017-09-15T03:55:10.509Z,99723.30
2017-09-15T03:58:11.747Z,99722.92
2017-09-15T04:01:13.154Z,99716.30
2017-09-15T04:04:14.474Z,99727.13
2017-09-15T04:07:15.750Z,99731.58
2017-09-15T04:10:17.033Z,99724.88
2017-09-15T04:13:18.346Z,99728.45
2017-09-15T04:16:19.590Z,99732.44
2017-09-15T04:19:20.883Z,99730.06
2017-09-15T04:22:22.375Z,99732.02
2017-09-15T04:25:23.642Z,99722.77
2017-09-15T04:28:24.945Z,99731.28
2017-09-15T04:31:26.234Z,99724.56
2017-09-15T04:34:27.526Z,99732.54
2017-09-15T04:37:28.837Z,99717.72
2017-09-15T04:40:30.150Z,99722.03
2017-09-15T04:43:31.422Z,99723.88
2017-09-15T04:46:32.743Z,99725.93
2017-09-15T04:49:34.028Z,99720.30
2017-09-15T04:52:35.334Z,99719.73
2017-09-15T04:55:36.637Z,99716.54
2017-09-15T04:58:37.926Z,99722.99
2017-09-15T05:01:39.195Z,99718.14
2017-09-15T05:04:40.443Z,99727.23
2017-09-15T05:07:41.758Z,99724.74
2017-09-15T05:10:43.758Z,99732.14
2017-09-15T05:13:45.031Z,99726.90
2017-09-15T05:16:46.330Z,99725.59
2017-09-15T05:19:47.611Z,99732.85
2017-09-15T05:22:48.990Z,99728.25
2017-09-15T05:25:50.258Z,99723.03
2017-09-15T05:28:52.291Z,99717.81
2017-09-15T05:31:53.690Z,99706.52
2017-09-15T05:34:54.965Z,99714.23
2017-09-15T05:37:56.261Z,99709.96
2017-09-15T05:40:57.534Z,99702.30
2017-09-15T05:43:59.568Z,99703.66
2017-09-15T05:47:00.835Z,99694.98
2017-09-15T05:50:02.902Z,99698.77
2017-09-15T05:53:04.894Z,99694.78
2017-09-15T05:56:06.219Z,99697.70
2017-09-15T05:59:07.467Z,99696.40
2017-09-15T06:02:09.503Z,99688.80
2017-09-15T06:05:10.787Z,99701.43
2017-09-15T06:08:12.810Z,99693.16
2017-09-15T06:11:14.071Z,99700.69
2017-09-15T06:14:15.370Z,99702.05
2017-09-15T06:17:16.943Z,99701.09
2017-09-15T06:20:18.191Z,99702.28
2017-09-15T06:23:19.518Z,99699.41
2017-09-15T06:26:20.759Z,99699.95
2017-09-15T06:29:22.062Z,99687.45
2017-09-15T06:32:23.333Z,99688.13
2017-09-15T06:35:24.645Z,99685.62
2017-09-15T06:38:25.906Z,99681.70
2017-09-15T06:41:27.163Z,99680.17
2017-09-15T06:44:28.461Z,99683.39
2017-09-15T06:47:29.763Z,99686.05
2017-09-15T06:50:31.007Z,99686.85
2017-09-15T06:53:32.315Z,99685.38
2017-09-15T06:56:33.575Z,99685.06
2017-09-15T06:59:34.850Z,99687.28
2017-09-15T07:02:36.130Z,99685.91
2017-09-15T07:05:38.162Z,99682.95
2017-09-15T07:08:39.499Z,99681.00
2017-09-15T07:11:40.741Z,99690.08
2017-09-15T07:14:42.034Z,99692.28
2017-09-15T07:17:44.015Z,99697.22
2017-09-15T07:20:46.040Z,99704.19
2017-09-15T07:23:47.333Z,99696.48
2017-09-15T07:26:48.610Z,99708.69
2017-09-15T07:29:49.862Z,99692.12
2017-09-15T07:32:51.161Z,99701.95
2017-09-15T07:36:00.100Z,99718.11
2017-09-15T07:39:02.149Z,99704.09
2017-09-15T07:42:03.430Z,99711.98
2017-09-15T07:45:04.722Z,99711.61
2017-09-15T07:48:05.980Z,99713.30
2017-09-15T07:51:07.251Z,99717.09
2017-09-15T07:54:09.316Z,99716.84
2017-09-15T07:57:11.622Z,99725.59
2017-09-15T08:00:12.899Z,99718.41
2017-09-15T08:03:14.166Z,99726.73
2017-09-15T08:06:15.426Z,99729.80
2017-09-15T08:09:16.731Z,99724.07
2017-09-15T08:12:18.006Z,99729.86
2017-09-15T08:15:19.346Z,99730.30
2017-09-15T08:18:20.758Z,99736.52
2017-09-15T08:21:22.006Z,99728.58
2017-09-15T08:24:51.681Z,99726.16
2017-09-15T08:27:52.970Z,99735.14
2017-09-15T08:30:54.265Z,99736.27
2017-09-15T08:33:55.658Z,99728.55
2017-09-15T08:36:56.938Z,99728.22
2017-09-15T08:39:58.458Z,99733.38
2017-09-15T08:43:00.474Z,99728.65
2017-09-15T08:46:01.761Z,99733.69
2017-09-15T08:49:10.806Z,99738.90
2017-09-15T08:52:12.086Z,99741.86
2017-09-15T08:55:13.350Z,99734.22
2017-09-15T08:58:14.644Z,99734.09
2017-09-15T09:01:16.655Z,99731.14
2017-09-15T09:04:17.922Z,99729.09
2017-09-15T09:07:19.286Z,99722.39
2017-09-15T09:10:20.546Z,99724.68
2017-09-15T09:13:22.566Z,99727.08
2017-09-15T09:16:23.803Z,99717.32
2017-09-15T09:19:25.094Z,99712.48
2017-09-15T09:22:26.330Z,99718.30
2017-09-15T09:25:27.646Z,99708.78
2017-09-15T09:28:29.093Z,99716.37
2017-09-15T09:31:30.330Z,99708.67
2017-09-15T09:34:31.610Z,99708.11
2017-09-15T09:37:32.864Z,99699.98
2017-09-15T09:40:34.135Z,99701.27
2017-09-15T09:43:35.427Z,99701.97
2017-09-15T09:46:36.696Z,99693.39
2017-09-15T09:49:37.934Z,99692.79
2017-09-15T09:52:39.243Z,99687.08
2017-09-15T09:55:41.354Z,99688.34
2017-09-15T09:58:42.609Z,99682.16
2017-09-15T10:01:43.883Z,99681.42
2017-09-15T10:04:45.151Z,99682.55
2017-09-15T10:07:47.188Z,99693.44
2017-09-15T10:10:48.418Z,99680.59
2017-09-15T10:13:49.682Z,99686.65
2017-09-15T10:16:50.926Z,99686.80
2017-09-15T10:19:52.198Z,99687.45
2017-09-15T10:22:53.485Z,99678.84
2017-09-15T10:25:54.792Z,99674.03
2017-09-15T10:28:56.246Z,99680.14
2017-09-15T10:31:57.510Z,99677.91
2017-09-15T10:34:59.514Z,99664.36
2017-09-15T10:38:00.798Z,99678.47
2017-09-15T10:41:02.066Z,99673.53
2017-09-15T10:44:03.341Z,99665.36
2017-09-15T10:47:04.646Z,99673.42
2017-09-15T10:50:05.922Z,99681.02
2017-09-15T10:53:07.935Z,99679.59
2017-09-15T10:56:09.179Z,99668.36
2017-09-15T10:59:16.702Z,99664.12
2017-09-15T11:02:17.929Z,99674.77
2017-09-15T11:05:19.221Z,99672.67
2017-09-15T11:08:21.218Z,99676.11
2017-09-15T11:11:22.469Z,99671.38
2017-09-15T11:14:23.770Z,99679.93
2017-09-15T11:17:25.049Z,99676.47
2017-09-15T11:20:27.059Z,99669.64
2017-09-15T11:23:28.329Z,99666.14
2017-09-15T11:26:29.617Z,99665.27
2017-09-15T11:29:30.878Z,99659.56
2017-09-15T11:32:32.157Z,99660.63
2017-09-15T11:35:33.546Z,99641.99
2017-09-15T11:38:35.557Z,99641.80
2017-09-15T11:41:36.887Z,99653.56
2017-09-15T11:44:38.850Z,99655.85
2017-09-15T11:47:40.149Z,99662.84
2017-09-15T11:50:41.425Z,99660.19
2017-09-15T11:53:43.418Z,99664.38
2017-09-15T11:56:44.728Z,99667.26
2017-09-15T11:59:46.742Z,99656.59
2017-09-15T12:02:48.015Z,99664.44
2017-09-15T12:05:49.298Z,99664.50
2017-09-15T12:08:51.290Z,99661.12
2017-09-15T12:11:52.581Z,99657.14
2017-09-15T12:14:54.102Z,99666.97
2017-09-15T12:17:55.357Z,99661.66
2017-09-15T12:20:56.662Z,99659.03
2017-09-15T12:23:58.749Z,99658.48
2017-09-15T12:27:00.033Z,99656.68
2017-09-15T12:30:02.106Z,99658.99
2017-09-15T12:33:03.370Z,99658.16
2017-09-15T12:36:04.703Z,99645.07
2017-09-15T12:39:05.982Z,99649.89
2017-09-15T12:42:07.363Z,99642.94
2017-09-15T12:45:08.619Z,99635.59
2017-09-15T12:48:09.906Z,99635.25
2017-09-15T12:51:11.139Z,99634.55
2017-09-15T12:54:12.466Z,99635.58
2017-09-15T12:57:13.754Z,99634.70
2017-09-15T13:00:15.092Z,99632.45
2017-09-15T13:03:16.362Z,99641.82
2017-09-15T13:06:17.783Z,99637.22
2017-09-15T13:09:19.061Z,99628.13
2017-09-15T13:12:20.338Z,99630.28
2017-09-15T13:15:22.378Z,99627.37
2017-09-15T13:18:23.658Z,99625.92
2017-09-15T13:21:25.643Z,99633.05
2017-09-15T13:24:27.041Z,99632.20
2017-09-15T13:27:28.649Z,99623.94
2017-09-15T13:30:29.950Z,99626.34
2017-09-15T13:33:31.342Z,99615.08
2017-09-15T13:36:32.586Z,99622.94
2017-09-15T13:39:33.854Z,99624.68
2017-09-15T13:42:35.086Z,99611.50
2017-09-15T13:45:36.334Z,99621.19
2017-09-15T13:48:37.597Z,99608.17
2017-09-15T13:51:38.893Z,99608.59
2017-09-15T13:54:40.295Z,99614.75
2017-09-15T13:57:41.566Z,99615.31
2017-09-15T14:00:42.838Z,99616.08
2017-09-15T14:03:44.101Z,99610.58
2017-09-15T14:06:46.126Z,99620.66
2017-09-15T14:09:47.414Z,99615.29
2017-09-15T14:12:49.437Z,99608.69
2017-09-15T14:15:50.847Z,99603.02
2017-09-15T14:18:52.849Z,99606.61
2017-09-15T14:21:54.257Z,99606.73
2017-09-15T14:24:56.254Z,99594.81
2017-09-15T14:27:57.545Z,99599.55
2017-09-15T14:30:58.842Z,99598.00
2017-09-15T14:34:00.130Z,99591.91
2017-09-15T14:37:02.130Z,99582.54
2017-09-15T14:40:04.171Z,99580.13
2017-09-15T14:43:05.414Z,99581.19
2017-09-15T14:46:06.706Z,99579.19
2017-09-15T14:49:07.995Z,99573.59
2017-09-15T14:52:11.797Z,99575.34
2017-09-15T14:55:13.044Z,99578.36
2017-09-15T14:58:14.392Z,99574.05
2017-09-15T15:01:15.643Z,99577.15
2017-09-15T15:04:16.937Z,99577.27
2017-09-15T15:07:18.925Z,99569.54
2017-09-15T15:10:20.308Z,99574.93
2017-09-15T15:13:21.554Z,99568.83
2017-09-15T15:16:22.846Z,99569.81
2017-09-15T15:19:24.099Z,99566.98
2017-09-15T15:22:25.470Z,99576.55
2017-09-15T15:25:26.738Z,99578.92
2017-09-15T15:28:28.033Z,99569.97
2017-09-15T15:31:29.333Z,99565.69
2017-09-15T15:34:30.657Z,99561.78
2017-09-15T15:37:32.646Z,99567.09
2017-09-15T15:40:33.888Z,99583.09
2017-09-15T15:43:35.206Z,99585.57
2017-09-15T15:46:37.239Z,99583.64
2017-09-15T15:49:38.523Z,99586.88
2017-09-15T15:52:41.357Z,99584.50
2017-09-15T15:55:42.646Z,99584.05
2017-09-15T15:58:43.926Z,99585.20
2017-09-15T16:01:45.214Z,99588.90
2017-09-15T16:04:46.618Z,99594.23
2017-09-15T16:07:48.610Z,99593.96
2017-09-15T16:10:49.971Z,99591.98
2017-09-15T16:13:51.215Z,99597.39
2017-09-15T16:16:52.501Z,99589.15
2017-09-15T16:19:53.810Z,99600.09
2017-09-15T16:22:55.115Z,99603.95
2017-09-15T16:25:57.179Z,99596.87
2017-09-15T16:28:58.524Z,99597.98
2017-09-15T16:31:59.843Z,99595.68
2017-09-15T16:35:01.245Z,99591.67
2017-09-15T16:38:08.974Z,99594.23
2017-09-15T16:41:16.302Z,99596.36
2017-09-15T16:44:23.704Z,99594.23
2017-09-15T16:47:31.081Z,99608.15
2017-09-15T16:50:32.401Z,99596.76
2017-09-15T16:53:33.751Z,99609.72
2017-09-15T16:56:35.061Z,99607.84
2017-09-15T16:59:37.139Z,99619.13
2017-09-15T17:02:38.529Z,99613.58
2017-09-15T17:05:40.603Z,99617.87
2017-09-15T17:08:41.878Z,99618.00
2017-09-15T17:11:43.218Z,99614.98
2017-09-15T17:14:44.582Z,99610.97
2017-09-15T17:17:45.967Z,99615.04
2017-09-15T17:20:47.332Z,99613.08
2017-09-15T17:23:49.523Z,99609.70
2017-09-15T17:26:52.839Z,99621.91
2017-09-15T17:29:55.384Z,99622.56
2017-09-15T17:32:57.251Z,99617.66
2017-09-15T17:35:58.586Z,99627.45
2017-09-15T17:38:59.988Z,99626.77
2017-09-15T17:42:01.583Z,99623.76
2017-09-15T17:45:02.933Z,99630.23
2017-09-15T17:48:04.301Z,99630.92
2017-09-15T17:51:06.729Z,99627.11
2017-09-15T17:54:08.917Z,99635.56
2017-09-15T17:57:10.209Z,99638.33
2017-09-15T18:00:12.518Z,99639.16
2017-09-15T18:03:14.707Z,99630.86
2017-09-15T18:06:16.801Z,99642.64
2017-09-15T18:09:18.156Z,99644.38
2017-09-15T18:12:19.861Z,99649.77
2017-09-15T18:15:21.708Z,99638.38
2017-09-15T18:18:24.014Z,99640.77
2017-09-15T18:21:26.517Z,99640.36
2017-09-15T18:24:27.863Z,99641.70
2017-09-15T18:27:29.231Z,99650.89
2017-09-15T18:30:31.635Z,99645.52
2017-09-15T18:33:33.330Z,99646.35
2017-09-15T18:36:35.975Z,99643.66
2017-09-15T18:39:38.058Z,99642.25
2017-09-15T18:42:40.450Z,99654.85
2017-09-15T18:45:42.898Z,99651.14
2017-09-15T18:48:44.359Z,99640.95
2017-09-15T18:51:47.305Z,99647.37
2017-09-15T18:54:49.945Z,99658.42
2017-09-15T18:57:51.747Z,99659.42
2017-09-15T19:00:53.860Z,99656.97
2017-09-15T19:03:57.364Z,99652.30
2017-09-15T19:06:58.794Z,99645.70
2017-09-15T19:10:01.987Z,99653.38
2017-09-15T19:13:03.466Z,99649.60
2017-09-15T19:16:05.230Z,99647.47
2017-09-15T19:22:15.292Z,99659.61
2017-09-15T19:25:16.614Z,99647.80
2017-09-15T19:28:17.962Z,99644.83
2017-09-15T19:34:50.734Z,99658.02
2017-09-15T19:37:52.185Z,99653.00
2017-09-15T19:40:53.709Z,99652.44
2017-09-15T19:43:55.073Z,99658.39
2017-09-15T19:46:56.593Z,99657.44
2017-09-15T19:49:59.157Z,99660.03
2017-09-15T19:53:00.454Z,99668.62
2017-09-15T19:56:01.778Z,99659.30
2017-09-15T19:59:03.136Z,99663.08
2017-09-15T20:02:05.842Z,99655.84
2017-09-15T20:05:07.240Z,99649.97
2017-09-15T20:08:08.640Z,99646.47
2017-09-15T20:11:10.827Z,99646.47
2017-09-15T20:14:12.136Z,99648.45
2017-09-15T20:17:13.435Z,99648.61
2017-09-15T20:20:14.739Z,99650.40
2017-09-15T20:23:16.112Z,99650.27
2017-09-15T20:26:17.592Z,99651.03
2017-09-15T20:29:19.054Z,99644.91
2017-09-15T20:32:20.512Z,99654.20
2017-09-15T20:35:22.563Z,99640.73
2017-09-15T20:38:23.939Z,99653.58
2017-09-15T20:41:26.380Z,99656.67
2017-09-15T20:44:27.659Z,99649.41
2017-09-15T20:47:28.976Z,99645.64
2017-09-15T20:50:30.489Z,99649.84
2017-09-15T20:53:31.801Z,99649.01
2017-09-15T20:56:33.240Z,99656.16
2017-09-15T20:59:34.554Z,99655.98
2017-09-15T21:02:35.890Z,99660.45
2017-09-15T21:05:37.184Z,99662.68
2017-09-15T21:08:39.340Z,99659.64
2017-09-15T21:11:42.590Z,99658.53
2017-09-15T21:14:43.951Z,99659.25
2017-09-15T21:17:45.919Z,99657.27
2017-09-15T21:20:47.175Z,99653.38
2017-09-15T21:23:48.555Z,99655.47
2017-09-15T21:26:50.596Z,99653.10
2017-09-15T21:29:51.956Z,99649.28
2017-09-15T21:32:53.254Z,99648.13
2017-09-15T21:35:54.611Z,99641.28
2017-09-15T21:38:55.922Z,99641.80
2017-09-15T21:41:57.191Z,99641.86
2017-09-15T21:44:58.483Z,99641.31
2017-09-15T21:47:59.815Z,99641.72
2017-09-15T21:51:01.274Z,99644.66
2017-09-15T21:54:02.563Z,99631.94
2017-09-15T21:57:03.930Z,99638.70
2017-09-15T22:00:05.342Z,99650.55
2017-09-15T22:03:06.661Z,99643.16
2017-09-15T22:06:08.103Z,99644.80
2017-09-15T22:09:09.401Z,99649.45
2017-09-15T22:12:10.716Z,99639.80
2017-09-15T22:15:12.021Z,99636.77
2017-09-15T22:18:13.406Z,99650.09
2017-09-15T22:21:15.255Z,99651.14
2017-09-15T22:24:16.558Z,99647.64
2017-09-15T22:27:17.932Z,99638.18
2017-09-15T22:30:19.238Z,99634.95
2017-09-15T22:33:21.169Z,99636.19
2017-09-15T22:36:22.429Z,99640.78
2017-09-15T22:39:23.758Z,99646.31
2017-09-15T22:42:25.746Z,99643.19
2017-09-15T22:45:27.054Z,99635.44
2017-09-15T22:48:28.554Z,99638.77
2017-09-15T22:51:29.822Z,99633.80
2017-09-15T22:54:31.131Z,99630.61
2017-09-15T22:57:33.155Z,99629.89
2017-09-15T23:00:34.487Z,99628.58
2017-09-15T23:03:35.756Z,99620.14
2017-09-15T23:06:37.062Z,99626.67
2017-09-15T23:09:38.326Z,99622.34
2017-09-15T23:12:39.702Z,99617.63
2017-09-15T23:15:41.050Z,99629.44
2017-09-15T23:18:42.322Z,99621.76
2017-09-15T23:21:43.710Z,99620.83
2017-09-15T23:24:44.973Z,99614.14
2017-09-15T23:27:46.293Z,99610.94
2017-09-15T23:30:47.578Z,99613.09
2017-09-15T23:33:48.914Z,99615.76
2017-09-15T23:36:50.213Z,99619.97
2017-09-15T23:39:51.518Z,99613.10
2017-09-15T23:42:52.931Z,99618.11
2017-09-15T23:45:55.029Z,99608.10
2017-09-15T23:48:56.352Z,99616.61
2017-09-15T23:51:58.378Z,99609.36
2017-09-15T23:54:59.694Z,99616.50
2017-09-15T23:58:00.970Z,99609.70
